createdAt,value
2018-12-03T00:01:22.279Z,61.37
2018-12-03T00:04:00.732Z,60.87
2018-12-03T00:06:35.201Z,61.21
2018-12-03T00:09:13.382Z,61.73
2018-12-03T00:11:47.971Z,61.74
2018-12-03T00:14:26.235Z,62.28
2018-12-03T00:17:03.429Z,61.76
2018-12-03T00:19:40.708Z,61.63
2018-12-03T00:22:12.895Z,61.83
2018-12-03T00:24:50.926Z,61.81
2018-12-03T00:27:27.551Z,62.08
2018-12-03T00:30:08.534Z,62.01
2018-12-03T00:32:43.911Z,62.27
2018-12-03T00:35:24.841Z,62.03
2018-12-03T00:37:58.879Z,61.24
2018-12-03T00:40:38.295Z,61.87
2018-12-03T00:43:14.153Z,61.14
2018-12-03T00:45:47.298Z,60.27
2018-12-03T00:48:22.982Z,60.29
2018-12-03T00:50:57.547Z,60.03
2018-12-03T00:53:34.264Z,60.93
2018-12-03T00:56:08.487Z,60.04
2018-12-03T00:58:46.232Z,59.19
2018-12-03T01:01:22.006Z,58.94
2018-12-03T01:03:57.606Z,59.32
2018-12-03T01:06:32.062Z,59.88
2018-12-03T01:09:10.934Z,60.02
2018-12-03T01:11:48.240Z,59.28
2018-12-03T01:14:24.536Z,58.93
2018-12-03T01:17:02.871Z,58.28
2018-12-03T01:19:43.142Z,58.78
2018-12-03T01:22:18.411Z,59.83
2018-12-03T01:24:52.450Z,60.01
2018-12-03T01:27:29.820Z,60.66
2018-12-03T01:30:04.214Z,59.90
2018-12-03T01:32:38.553Z,59.46
2018-12-03T01:35:13.130Z,59.45
2018-12-03T01:37:47.538Z,58.78
2018-12-03T01:40:27.286Z,58.00
2018-12-03T01:43:04.810Z,57.06
2018-12-03T01:45:39.802Z,56.77
2018-12-03T01:48:15.063Z,56.30
2018-12-03T01:50:50.113Z,56.09
2018-12-03T01:53:27.051Z,56.07
2018-12-03T01:56:09.738Z,56.49
2018-12-03T01:58:44.795Z,56.36
2018-12-03T02:01:19.519Z,56.44
2018-12-03T02:03:52.043Z,55.51
2018-12-03T02:06:27.864Z,55.12
2018-12-03T02:09:03.881Z,56.53
2018-12-03T02:11:41.167Z,56.62
2018-12-03T02:14:16.773Z,56.81
2018-12-03T02:16:53.034Z,55.73
2018-12-03T02:19:33.551Z,56.53
2018-12-03T02:22:10.677Z,55.14
2018-12-03T02:29:18.744Z,55.17
2018-12-03T02:31:52.756Z,54.28
2018-12-03T02:34:31.604Z,55.49
2018-12-03T02:37:10.775Z,55.37
2018-12-03T02:39:48.189Z,55.32
2018-12-03T02:42:26.341Z,55.91
2018-12-03T02:45:03.601Z,55.40
2018-12-03T02:47:41.194Z,55.39
2018-12-03T02:50:19.909Z,55.79
2018-12-03T02:52:57.127Z,55.94
2018-12-03T02:55:36.977Z,55.98
2018-12-03T02:58:10.776Z,56.43
2018-12-03T03:00:47.769Z,56.27
2018-12-03T03:03:26.784Z,57.13
2018-12-03T03:05:58.859Z,56.76
2018-12-03T03:08:37.625Z,56.75
2018-12-03T03:11:11.933Z,57.98
2018-12-03T03:13:51.049Z,57.79
2018-12-03T03:16:24.590Z,57.31
2018-12-03T03:19:03.909Z,57.98
2018-12-03T03:21:42.354Z,58.29
2018-12-03T03:24:19.822Z,58.24
2018-12-03T03:26:54.183Z,57.54
2018-12-03T03:29:35.468Z,57.10
2018-12-03T03:32:11.584Z,57.13
2018-12-03T03:34:46.545Z,56.53
2018-12-03T03:37:21.985Z,56.42
2018-12-03T03:39:57.786Z,56.93
2018-12-03T03:42:37.970Z,57.34
2018-12-03T03:45:18.948Z,56.31
2018-12-03T03:47:53.337Z,56.90
2018-12-03T03:50:31.371Z,56.32
2018-12-03T03:53:05.167Z,56.11
2018-12-03T03:55:41.276Z,56.34
2018-12-03T03:58:17.073Z,55.49
2018-12-03T04:01:02.073Z,56.61
2018-12-03T04:03:40.900Z,56.11
2018-12-03T04:06:13.975Z,56.82
2018-12-03T04:08:48.795Z,56.82
2018-12-03T04:14:04.222Z,58.13
2018-12-03T04:16:39.953Z,57.97
2018-12-03T04:19:15.139Z,57.54
2018-12-03T04:22:05.640Z,57.76
2018-12-03T04:24:40.146Z,57.05
2018-12-03T04:27:19.524Z,57.70
2018-12-03T04:29:55.713Z,58.83
2018-12-03T04:32:36.589Z,60.09
2018-12-03T04:35:16.298Z,60.10
2018-12-03T04:37:53.018Z,60.05
2018-12-03T04:40:31.821Z,60.02
2018-12-03T04:43:10.451Z,60.37
2018-12-03T04:45:45.014Z,60.52
2018-12-03T04:48:20.620Z,60.46
2018-12-03T04:50:57.012Z,60.34
2018-12-03T04:53:32.762Z,60.43
2018-12-03T04:56:06.318Z,61.56
2018-12-03T04:58:39.431Z,61.66
2018-12-03T05:04:00.172Z,60.61
2018-12-03T05:06:33.164Z,59.86
2018-12-03T05:09:12.123Z,59.86
2018-12-03T05:11:53.654Z,59.67
2018-12-03T05:14:33.634Z,60.24
2018-12-03T05:17:08.902Z,61.01
2018-12-03T05:19:47.370Z,60.70
2018-12-03T05:22:24.915Z,60.78
2018-12-03T05:25:02.336Z,60.24
2018-12-03T05:27:37.505Z,59.61
2018-12-03T05:30:21.871Z,60.25
2018-12-03T05:32:56.001Z,60.03
2018-12-03T05:35:34.544Z,60.88
2018-12-03T05:38:10.995Z,60.41
2018-12-03T05:40:50.701Z,60.22
2018-12-03T05:43:26.327Z,60.06
2018-12-03T05:46:06.358Z,59.73
2018-12-03T05:48:41.518Z,60.59
2018-12-03T05:51:18.146Z,60.11
2018-12-03T05:53:53.882Z,59.77
2018-12-03T05:56:35.406Z,60.33
2018-12-03T05:59:09.475Z,60.69
2018-12-03T06:01:48.526Z,60.65
2018-12-03T06:04:25.511Z,60.82
2018-12-03T06:07:02.628Z,61.15
2018-12-03T06:09:36.930Z,60.60
2018-12-03T06:12:11.423Z,60.55
2018-12-03T06:14:50.271Z,59.94
2018-12-03T06:17:25.478Z,60.36
2018-12-03T06:20:04.526Z,59.68
2018-12-03T06:22:40.930Z,59.53
2018-12-03T06:25:21.503Z,59.17
2018-12-03T06:27:56.931Z,59.37
2018-12-03T06:30:36.682Z,58.15
2018-12-03T06:36:29.562Z,58.19
2018-12-03T06:39:06.995Z,58.27
2018-12-03T06:41:48.603Z,58.60
2018-12-03T06:44:22.752Z,57.74
2018-12-03T06:46:59.123Z,57.36
2018-12-03T06:49:36.598Z,57.09
2018-12-03T06:55:01.415Z,57.40
2018-12-03T06:57:43.002Z,56.56
2018-12-03T07:00:34.495Z,56.21
2018-12-03T07:03:09.678Z,55.99
2018-12-03T07:05:51.950Z,56.42
2018-12-03T07:08:28.914Z,56.90
2018-12-03T07:11:03.942Z,57.52
2018-12-03T07:13:43.355Z,57.63
2018-12-03T07:16:24.522Z,57.26
2018-12-03T07:19:01.959Z,57.47
2018-12-03T07:21:41.694Z,56.94
2018-12-03T07:24:23.079Z,57.22
2018-12-03T07:27:02.861Z,57.88
2018-12-03T07:29:44.387Z,57.26
2018-12-03T07:32:22.782Z,57.38
2018-12-03T07:35:01.633Z,58.24
2018-12-03T07:37:37.672Z,57.90
2018-12-03T07:40:17.102Z,58.52
2018-12-03T07:43:15.879Z,58.09
2018-12-03T07:45:51.246Z,58.54
2018-12-03T07:48:28.468Z,58.66
2018-12-03T07:51:10.372Z,58.74
2018-12-03T07:53:49.706Z,57.46
2018-12-03T07:56:34.160Z,57.85
2018-12-03T07:59:13.128Z,56.36
2018-12-03T08:01:50.335Z,57.05
2018-12-03T08:04:31.446Z,57.06
2018-12-03T08:07:11.453Z,56.88
2018-12-03T08:09:47.378Z,56.94
2018-12-03T08:12:25.275Z,57.89
2018-12-03T08:15:13.481Z,57.06
2018-12-03T08:18:00.999Z,58.28
2018-12-03T08:20:47.601Z,57.48
2018-12-03T08:24:34.693Z,57.77
2018-12-03T08:27:19.309Z,57.62
2018-12-03T08:30:02.271Z,57.74
2018-12-03T08:32:42.858Z,58.10
2018-12-03T08:35:24.366Z,57.64
2018-12-03T08:38:06.962Z,57.58
2018-12-03T08:40:46.584Z,57.21
2018-12-03T08:43:31.626Z,56.89
2018-12-03T08:46:13.002Z,57.42
2018-12-03T08:48:52.974Z,58.49
2018-12-03T08:54:24.818Z,57.79
2018-12-03T08:57:08.070Z,58.50
2018-12-03T08:59:57.497Z,58.54
2018-12-03T09:02:37.226Z,58.50
2018-12-03T09:05:13.791Z,58.03
2018-12-03T09:07:56.443Z,57.14
2018-12-03T09:14:17.376Z,57.43
2018-12-03T09:17:02.549Z,57.20
2018-12-03T09:19:43.926Z,56.93
2018-12-03T09:22:24.381Z,55.14
2018-12-03T09:25:03.460Z,55.31
2018-12-03T09:30:27.722Z,55.42
2018-12-03T09:33:07.158Z,55.72
2018-12-03T09:35:58.647Z,55.44
2018-12-03T09:38:37.610Z,55.26
2018-12-03T09:41:19.093Z,54.50
2018-12-03T09:44:01.663Z,55.59
2018-12-03T09:46:39.166Z,55.09
2018-12-03T09:49:27.235Z,54.71
2018-12-03T09:52:04.346Z,55.20
2018-12-03T09:54:39.971Z,55.38
2018-12-03T09:57:19.248Z,55.46
2018-12-03T09:59:54.734Z,54.70
2018-12-03T10:02:41.271Z,55.05
2018-12-03T10:05:14.438Z,54.90
2018-12-03T10:07:49.802Z,55.53
2018-12-03T10:10:32.346Z,56.53
2018-12-03T10:13:34.446Z,56.59
2018-12-03T10:16:16.626Z,56.80
2018-12-03T10:30:56.664Z,56.88
2018-12-03T10:36:39.832Z,57.69
2018-12-03T10:39:22.734Z,58.27
2018-12-03T10:42:08.386Z,57.19
2018-12-03T10:44:50.022Z,57.36
2018-12-03T10:47:26.607Z,56.97
2018-12-03T10:50:04.239Z,57.40
2018-12-03T10:52:45.502Z,57.55
2018-12-03T10:55:27.130Z,57.32
2018-12-03T10:58:03.483Z,56.64
2018-12-03T11:03:40.291Z,57.51
2018-12-03T11:06:23.364Z,57.60
2018-12-03T11:09:01.179Z,57.86
2018-12-03T11:11:38.606Z,56.44
2018-12-03T11:14:16.834Z,57.17
2018-12-03T11:16:55.443Z,57.45
2018-12-03T11:19:41.982Z,57.18
2018-12-03T11:22:19.414Z,57.70
2018-12-03T11:25:02.046Z,57.53
2018-12-03T11:27:48.855Z,57.52
2018-12-03T11:30:34.406Z,56.69
2018-12-03T11:33:12.788Z,56.40
2018-12-03T11:35:55.222Z,56.72
2018-12-03T11:38:43.932Z,56.33
2018-12-03T11:41:19.309Z,56.44
2018-12-03T11:44:01.409Z,55.49
2018-12-03T11:46:39.977Z,54.96
2018-12-03T11:52:17.041Z,55.70
2018-12-03T11:54:56.416Z,56.59
2018-12-03T11:57:35.189Z,56.25
2018-12-03T12:00:18.992Z,56.12
2018-12-03T12:02:58.985Z,56.42
2018-12-03T12:05:38.146Z,55.51
2018-12-03T12:08:27.063Z,55.99
2018-12-03T12:11:11.754Z,55.47
2018-12-03T12:13:46.950Z,55.29
2018-12-03T12:16:35.417Z,55.00
2018-12-03T12:19:13.891Z,55.16
2018-12-03T12:21:56.078Z,54.83
2018-12-03T12:29:41.872Z,54.70
2018-12-03T12:32:22.026Z,54.23
2018-12-03T12:34:57.727Z,53.56
2018-12-03T12:40:57.272Z,53.08
2018-12-03T12:43:39.635Z,54.28
2018-12-03T12:46:23.716Z,53.93
2018-12-03T12:51:42.479Z,54.23
2018-12-03T12:54:23.217Z,54.23
2018-12-03T12:57:07.355Z,53.81
2018-12-03T13:02:32.779Z,53.85
2018-12-03T13:05:20.436Z,54.74
2018-12-03T13:08:04.378Z,54.88
2018-12-03T13:10:41.198Z,54.87
2018-12-03T13:13:21.083Z,54.25
2018-12-03T13:15:58.577Z,54.41
2018-12-03T13:18:35.374Z,54.38
2018-12-03T13:21:12.047Z,55.09
2018-12-03T13:23:55.166Z,55.42
2018-12-03T13:26:34.225Z,54.69
2018-12-03T13:29:16.823Z,56.00
2018-12-03T13:32:05.842Z,55.75
2018-12-03T13:34:52.338Z,54.97
2018-12-03T13:37:39.819Z,55.22
2018-12-03T13:40:37.482Z,54.59
2018-12-03T13:43:27.775Z,54.72
2018-12-03T13:46:15.588Z,55.56
2018-12-03T13:52:00.803Z,55.03
2018-12-03T13:54:42.052Z,55.31
2018-12-03T13:57:21.312Z,56.45
2018-12-03T13:59:59.883Z,55.85
2018-12-03T14:02:37.960Z,56.96
2018-12-03T14:05:22.414Z,56.92
2018-12-03T14:08:08.494Z,56.59
2018-12-03T14:13:00.340Z,56.30
2018-12-03T14:19:30.959Z,57.58
2018-12-03T14:22:11.528Z,57.77
2018-12-03T14:24:50.225Z,57.70
2018-12-03T14:27:29.362Z,57.91
2018-12-03T14:30:16.378Z,57.69
2018-12-03T14:32:51.455Z,57.83
2018-12-03T14:35:30.190Z,58.09
2018-12-03T14:38:06.634Z,58.11
2018-12-03T14:40:44.551Z,58.08
2018-12-03T14:43:19.028Z,58.44
2018-12-03T14:45:58.575Z,58.82
2018-12-03T14:48:41.549Z,58.38
2018-12-03T14:51:20.903Z,58.71
2018-12-03T14:54:05.951Z,58.16
2018-12-03T14:56:47.503Z,58.47
2018-12-03T14:59:26.260Z,57.91
2018-12-03T15:02:04.409Z,57.44
2018-12-03T15:04:46.692Z,57.66
2018-12-03T15:07:40.572Z,58.76
2018-12-03T15:10:39.825Z,58.44
2018-12-03T15:13:25.265Z,59.03
2018-12-03T15:19:18.648Z,58.22
2018-12-03T15:22:01.163Z,58.74
2018-12-03T15:31:07.089Z,59.09
2018-12-03T15:33:53.554Z,58.79
2018-12-03T15:36:54.039Z,59.13
2018-12-03T15:45:50.463Z,58.73
2018-12-03T15:48:33.369Z,59.18
2018-12-03T15:51:12.299Z,58.76
2018-12-03T15:53:49.504Z,58.16
2018-12-03T15:56:31.410Z,58.53
2018-12-03T15:59:14.157Z,57.84
2018-12-03T16:01:51.196Z,57.56
2018-12-03T16:04:32.495Z,57.66
2018-12-03T16:07:17.056Z,58.47
2018-12-03T16:09:58.429Z,58.13
2018-12-03T16:12:39.909Z,58.77
2018-12-03T16:15:25.324Z,58.27
2018-12-03T16:18:06.055Z,58.53
2018-12-03T16:20:42.572Z,59.08
2018-12-03T16:23:24.095Z,58.80
2018-12-03T16:26:05.754Z,58.40
2018-12-03T16:28:51.952Z,58.09
2018-12-03T16:31:34.986Z,59.42
2018-12-03T16:34:17.166Z,58.98
2018-12-03T16:39:38.016Z,59.83
2018-12-03T16:42:17.662Z,59.93
2018-12-03T16:44:59.195Z,58.89
2018-12-03T16:47:37.695Z,59.05
2018-12-03T16:50:17.196Z,57.57
2018-12-03T16:55:41.336Z,58.03
2018-12-03T16:58:21.226Z,57.83
2018-12-03T17:01:05.828Z,56.50
2018-12-03T17:03:41.849Z,57.40
2018-12-03T17:06:26.126Z,56.92
2018-12-03T17:09:11.367Z,56.08
2018-12-03T17:11:54.678Z,55.18
2018-12-03T17:14:31.654Z,55.22
2018-12-03T17:17:10.124Z,55.55
2018-12-03T17:19:43.307Z,55.98
2018-12-03T17:22:36.865Z,55.92
2018-12-03T17:25:21.480Z,56.62
2018-12-03T17:30:48.759Z,56.34
2018-12-03T17:33:28.212Z,56.66
2018-12-03T17:36:04.683Z,55.92
2018-12-03T17:38:46.931Z,55.21
2018-12-03T17:41:24.002Z,55.43
2018-12-03T17:44:03.555Z,55.30
2018-12-03T17:46:50.422Z,54.44
2018-12-03T17:49:32.490Z,54.59
2018-12-03T17:52:17.451Z,54.97
2018-12-03T17:54:58.201Z,54.57
2018-12-03T17:57:38.308Z,55.23
2018-12-03T18:00:22.884Z,55.26
2018-12-03T18:03:08.331Z,54.50
2018-12-03T18:08:36.996Z,55.34
2018-12-03T18:11:11.308Z,55.49
2018-12-03T18:13:49.294Z,55.18
2018-12-03T18:19:20.074Z,56.00
2018-12-03T18:24:41.274Z,55.51
2018-12-03T18:30:00.247Z,55.50
2018-12-03T18:32:36.223Z,55.15
2018-12-03T18:35:18.735Z,55.15
2018-12-03T18:38:01.420Z,55.67
2018-12-03T18:40:41.535Z,55.78
2018-12-03T18:43:19.243Z,55.19
2018-12-03T18:46:00.224Z,55.14
2018-12-03T18:48:40.538Z,55.44
2018-12-03T18:51:23.599Z,55.80
2018-12-03T18:54:07.275Z,55.14
2018-12-03T18:56:43.461Z,55.13
2018-12-03T18:59:44.460Z,55.87
2018-12-03T19:02:28.312Z,55.78
2018-12-03T19:05:08.611Z,55.64
2018-12-03T19:07:48.464Z,54.98
2018-12-03T19:10:29.559Z,55.32
2018-12-03T19:18:31.325Z,55.43
2018-12-03T19:26:39.435Z,54.42
2018-12-03T19:29:18.377Z,54.04
2018-12-03T19:31:57.594Z,54.77
2018-12-03T19:34:49.295Z,54.55
2018-12-03T19:37:28.956Z,55.26
2018-12-03T19:40:07.807Z,55.31
2018-12-03T19:42:42.270Z,54.60
2018-12-03T19:45:25.513Z,54.23
2018-12-03T19:48:03.121Z,54.41
2018-12-03T19:50:37.471Z,54.40
2018-12-03T19:53:15.735Z,54.49
2018-12-03T19:58:43.484Z,55.37
2018-12-03T20:01:15.903Z,55.36
2018-12-03T20:06:43.699Z,55.64
2018-12-03T20:09:22.550Z,56.80
2018-12-03T20:12:01.542Z,56.17
2018-12-03T20:14:48.267Z,55.58
2018-12-03T20:17:38.836Z,55.58
2018-12-03T20:20:50.710Z,56.19
2018-12-03T20:23:27.540Z,56.01
2018-12-03T20:26:08.261Z,56.11
2018-12-03T20:30:59.150Z,56.70
2018-12-03T20:33:39.179Z,57.31
2018-12-03T20:38:25.041Z,56.96
2018-12-03T20:42:07.832Z,57.18
2018-12-03T20:44:47.481Z,56.75
2018-12-03T20:47:31.966Z,56.16
2018-12-03T20:50:32.510Z,56.43
2018-12-03T20:53:06.570Z,56.45
2018-12-03T20:55:47.324Z,56.04
2018-12-03T20:58:20.535Z,56.16
2018-12-03T21:00:53.955Z,55.96
2018-12-03T21:03:27.631Z,55.85
2018-12-03T21:06:00.202Z,56.58
2018-12-03T21:08:33.815Z,57.37
2018-12-03T21:11:20.625Z,58.16
2018-12-03T21:13:53.443Z,57.46
2018-12-03T21:16:24.418Z,58.35
2018-12-03T21:18:55.165Z,58.13
2018-12-03T21:21:28.101Z,58.09
2018-12-03T21:23:59.399Z,57.42
2018-12-03T21:26:31.597Z,57.83
2018-12-03T21:29:05.767Z,56.53
2018-12-03T21:31:38.573Z,57.93
2018-12-03T21:34:09.645Z,57.38
2018-12-03T21:36:41.766Z,57.40
2018-12-03T21:39:13.830Z,57.53
2018-12-03T21:41:46.325Z,56.78
2018-12-03T21:44:18.624Z,57.17
2018-12-03T21:46:51.249Z,57.40
2018-12-03T21:49:24.693Z,57.12
2018-12-03T21:52:02.108Z,57.29
2018-12-03T21:54:35.049Z,57.76
2018-12-03T21:57:10.940Z,57.11
2018-12-03T21:59:44.231Z,57.25
2018-12-03T22:02:17.772Z,56.36
2018-12-03T22:04:53.433Z,56.59
2018-12-03T22:07:27.576Z,55.73
2018-12-03T22:10:01.901Z,55.69
2018-12-03T22:12:39.922Z,56.73
2018-12-03T22:15:16.814Z,56.77
2018-12-03T22:17:49.711Z,56.81
2018-12-03T22:20:28.093Z,57.09
2018-12-03T22:23:01.020Z,56.71
2018-12-03T22:25:37.799Z,56.60
2018-12-03T22:28:10.170Z,56.58
2018-12-03T22:30:43.425Z,57.10
2018-12-03T22:33:16.906Z,56.81
2018-12-03T22:35:49.315Z,56.95
2018-12-03T22:38:21.750Z,55.76
2018-12-03T22:40:54.480Z,55.73
2018-12-03T22:43:28.986Z,55.60
2018-12-03T22:46:02.324Z,54.46
2018-12-03T22:48:35.334Z,55.25
2018-12-03T22:51:10.664Z,55.48
2018-12-03T22:53:44.667Z,54.63
2018-12-03T22:56:20.070Z,53.26
2018-12-03T22:58:56.472Z,53.70
2018-12-03T23:01:32.209Z,54.72
2018-12-03T23:04:06.211Z,54.51
2018-12-03T23:06:40.658Z,54.18
2018-12-03T23:09:13.362Z,54.16
2018-12-03T23:11:46.199Z,54.78
2018-12-03T23:14:18.213Z,54.32
2018-12-03T23:16:51.671Z,54.25
2018-12-03T23:19:27.624Z,54.31
2018-12-03T23:21:59.863Z,54.26
2018-12-03T23:24:31.622Z,54.14
2018-12-03T23:27:08.784Z,54.73
2018-12-03T23:29:41.008Z,54.89
2018-12-03T23:32:13.730Z,55.29
2018-12-03T23:34:46.033Z,54.77
2018-12-03T23:37:19.121Z,55.38
2018-12-03T23:39:53.303Z,55.47
2018-12-03T23:42:28.117Z,55.19
2018-12-03T23:45:00.629Z,56.08
2018-12-03T23:47:32.886Z,55.29
2018-12-03T23:50:05.751Z,54.60
2018-12-03T23:52:37.881Z,55.00
2018-12-03T23:55:09.287Z,54.99
2018-12-03T23:57:41.403Z,55.10
